Time;durP1;ratioP1;P1;durP2;ratioP2;P2;SDS_P1;SDS_P2;PMS_P1;PMS_P2;Temp;Humidity;BMP_temperature;BMP_pressure;BME280_temperature;BME280_humidity;BME280_pressure;Samples;Min_cycle;Max_cycle;Signal;HPM_P1;HPM_P2
2023/09/24 00:02:57;;;;;;;18.27;4.10;;;;;;;;;;5045732;28;20116;-57
2023/09/24 00:05:22;;;;;;;18.88;4.63;;;;;;;;;;5047171;22;20036;-61
2023/09/24 00:07:48;;;;;;;15.35;4.28;;;;;;;;;;5016777;28;20120;-60
2023/09/24 00:10:14;;;;;;;15.68;4.68;;;;;;;;;;4998662;23;1215114;-59
2023/09/24 00:12:39;;;;;;;17.60;4.70;;;;;;;;;;5023550;28;20760;-59
2023/09/24 00:15:05;;;;;;;17.80;4.30;;;;;;;;;;5031244;28;20049;-58
2023/09/24 00:17:30;;;;;;;16.52;4.70;;;;;;;;;;5038949;28;20286;-58
2023/09/24 00:19:55;;;;;;;15.55;4.97;;;;;;;;;;5039033;28;20033;-60
2023/09/24 00:22:21;;;;;;;18.07;4.37;;;;;;;;;;5034313;28;20378;-59
2023/09/24 00:24:46;;;;;;;24.73;5.33;;;;;;;;;;5032975;22;20375;-57
2023/09/24 00:27:12;;;;;;;16.15;4.32;;;;;;;;;;5017586;28;20406;-56
2023/09/24 00:29:37;;;;;;;16.65;4.25;;;;;;;;;;5016884;28;20034;-59
2023/09/24 00:32:02;;;;;;;22.27;3.90;;;;;;;;;;5017452;28;20128;-56
2023/09/24 00:34:28;;;;;;;20.60;5.45;;;;;;;;;;5016247;28;20288;-57
2023/09/24 00:36:53;;;;;;;19.45;4.45;;;;;;;;;;5015775;28;20037;-57
2023/09/24 00:39:19;;;;;;;14.15;4.18;;;;;;;;;;5017993;28;20477;-57
2023/09/24 00:41:45;;;;;;;19.42;5.05;;;;;;;;;;5011913;28;20833;-58
2023/09/24 00:46:38;;;;;;;16.20;4.50;;;;;;;;;;4993290;28;20563;-58
2023/09/24 00:49:03;;;;;;;14.70;4.13;;;;;;;;;;5012745;28;20175;-58
2023/09/24 00:51:28;;;;;;;20.20;4.57;;;;;;;;;;5015412;28;20034;-58
2023/09/24 00:53:54;;;;;;;14.77;4.57;;;;;;;;;;5003973;28;20836;-57
2023/09/24 00:56:19;;;;;;;17.23;5.00;;;;;;;;;;5021207;28;20595;-57
2023/09/24 00:58:50;;;;;;;15.48;4.68;;;;;;;;;;5008913;28;20038;-58
2023/09/24 01:01:15;;;;;;;14.40;4.43;;;;;;;;;;5023583;28;20030;-58
2023/09/24 01:03:41;;;;;;;17.90;4.88;;;;;;;;;;5009126;28;20045;-58
2023/09/24 01:06:06;;;;;;;20.98;5.03;;;;;;;;;;5007975;28;20030;-58
2023/09/24 01:08:32;;;;;;;21.13;4.50;;;;;;;;;;5007029;28;20511;-61
2023/09/24 01:10:58;;;;;;;17.40;5.03;;;;;;;;;;5008989;28;20422;-58
2023/09/24 01:13:24;;;;;;;17.00;4.90;;;;;;;;;;5008531;28;20050;-58
2023/09/24 01:15:52;;;;;;;17.90;4.60;;;;;;;;;;5007743;28;20121;-58
2023/09/24 01:18:18;;;;;;;19.27;5.05;;;;;;;;;;5006794;28;20038;-57
2023/09/24 01:20:43;;;;;;;19.60;4.93;;;;;;;;;;5007992;28;20037;-58
2023/09/24 01:23:09;;;;;;;16.85;4.53;;;;;;;;;;5008741;28;20041;-58
2023/09/24 01:25:35;;;;;;;16.60;4.80;;;;;;;;;;5006683;28;20426;-58
2023/09/24 01:28:04;;;;;;;18.10;4.72;;;;;;;;;;4990851;28;20557;-58
2023/09/24 01:30:33;;;;;;;25.63;5.00;;;;;;;;;;4990895;28;20042;-58
2023/09/24 01:32:58;;;;;;;17.10;4.80;;;;;;;;;;5007128;28;20041;-58
2023/09/24 01:35:27;;;;;;;17.48;4.43;;;;;;;;;;5008053;28;20034;-58
2023/09/24 01:37:54;;;;;;;19.02;4.35;;;;;;;;;;5006807;28;20131;-58
2023/09/24 01:40:21;;;;;;;20.17;4.70;;;;;;;;;;5008602;28;20037;-58
2023/09/24 01:42:47;;;;;;;15.05;4.32;;;;;;;;;;5006590;28;20160;-58
2023/09/24 01:45:13;;;;;;;19.92;4.43;;;;;;;;;;5007261;28;20033;-58
2023/09/24 01:47:38;;;;;;;21.70;4.75;;;;;;;;;;5007958;28;20565;-58
2023/09/24 01:50:08;;;;;;;19.85;5.15;;;;;;;;;;5007964;28;20402;-58
2023/09/24 01:52:37;;;;;;;24.75;4.80;;;;;;;;;;5008556;28;20038;-59
2023/09/24 01:55:02;;;;;;;16.08;4.20;;;;;;;;;;5007630;28;20046;-58
2023/09/24 01:57:28;;;;;;;12.25;3.95;;;;;;;;;;5007087;28;20034;-57
2023/09/24 01:59:56;;;;;;;22.70;4.38;;;;;;;;;;5008086;28;20100;-58
2023/09/24 02:02:21;;;;;;;20.73;4.22;;;;;;;;;;5008258;28;20038;-58
2023/09/24 02:04:48;;;;;;;14.85;3.80;;;;;;;;;;5006716;28;20022;-58
2023/09/24 02:07:15;;;;;;;15.75;4.70;;;;;;;;;;5005481;28;20034;-58
2023/09/24 02:09:40;;;;;;;21.80;4.65;;;;;;;;;;5007685;28;20117;-57
2023/09/24 02:12:08;;;;;;;20.52;4.60;;;;;;;;;;5007637;28;20118;-58
2023/09/24 02:14:33;;;;;;;19.95;4.78;;;;;;;;;;5007742;28;20378;-58
2023/09/24 02:16:58;;;;;;;19.47;5.07;;;;;;;;;;5007011;28;20236;-58
2023/09/24 02:19:25;;;;;;;20.13;5.07;;;;;;;;;;5007274;28;20351;-57
2023/09/24 02:21:50;;;;;;;16.73;4.75;;;;;;;;;;5007946;28;20316;-58
2023/09/24 02:24:15;;;;;;;20.10;4.50;;;;;;;;;;5007069;28;20054;-57
2023/09/24 02:26:41;;;;;;;15.60;3.97;;;;;;;;;;5006464;28;20371;-57
2023/09/24 02:29:07;;;;;;;18.27;4.75;;;;;;;;;;5007282;28;20294;-58
2023/09/24 02:31:33;;;;;;;18.30;4.30;;;;;;;;;;5007549;28;20081;-58
2023/09/24 02:33:58;;;;;;;11.95;4.20;;;;;;;;;;5006611;28;20045;-58
2023/09/24 02:36:24;;;;;;;18.38;4.82;;;;;;;;;;5006347;28;20048;-58
2023/09/24 02:38:50;;;;;;;14.85;4.40;;;;;;;;;;5006899;28;20046;-58
2023/09/24 02:41:15;;;;;;;13.80;4.07;;;;;;;;;;5007458;28;20034;-58
2023/09/24 02:43:40;;;;;;;13.60;4.30;;;;;;;;;;5007090;28;20095;-58
2023/09/24 02:46:06;;;;;;;15.90;4.70;;;;;;;;;;5006315;28;20038;-58
2023/09/24 02:48:32;;;;;;;14.80;4.35;;;;;;;;;;4988925;28;20101;-58
2023/09/24 02:51:04;;;;;;;18.00;3.90;;;;;;;;;;5006812;28;20034;-59
2023/09/24 02:53:30;;;;;;;19.90;4.53;;;;;;;;;;5006809;28;20053;-59
2023/09/24 02:55:55;;;;;;;17.07;4.40;;;;;;;;;;5005555;28;20029;-58
2023/09/24 02:58:20;;;;;;;19.20;4.30;;;;;;;;;;5006209;28;20269;-58
2023/09/24 03:00:46;;;;;;;14.10;4.23;;;;;;;;;;5006532;28;20030;-58
2023/09/24 03:03:15;;;;;;;15.52;4.03;;;;;;;;;;5006085;28;20450;-58
2023/09/24 03:05:40;;;;;;;16.75;4.13;;;;;;;;;;5006182;28;20140;-58
2023/09/24 03:08:09;;;;;;;21.02;4.68;;;;;;;;;;5005690;28;20041;-58
2023/09/24 03:10:34;;;;;;;21.45;4.53;;;;;;;;;;5005848;28;20426;-58
2023/09/24 03:13:00;;;;;;;18.23;4.55;;;;;;;;;;5006131;28;20121;-57
2023/09/24 03:15:26;;;;;;;17.40;4.38;;;;;;;;;;4988126;28;20176;-57
2023/09/24 03:17:51;;;;;;;16.95;4.55;;;;;;;;;;5004518;28;20113;-58
2023/09/24 03:20:19;;;;;;;17.13;4.82;;;;;;;;;;5005644;28;20184;-57
2023/09/24 03:22:48;;;;;;;18.77;4.32;;;;;;;;;;5006366;28;20030;-56
2023/09/24 03:25:17;;;;;;;17.33;4.63;;;;;;;;;;5005314;28;20045;-59
2023/09/24 03:27:42;;;;;;;14.63;4.80;;;;;;;;;;5001996;28;20756;-57
2023/09/24 03:30:09;;;;;;;16.50;4.40;;;;;;;;;;5005838;28;20104;-57
2023/09/24 03:32:36;;;;;;;20.83;4.80;;;;;;;;;;5004636;28;20025;-58
2023/09/24 03:35:03;;;;;;;15.98;5.18;;;;;;;;;;5005003;28;20034;-58
2023/09/24 03:37:28;;;;;;;15.85;4.82;;;;;;;;;;5005034;28;20041;-57
2023/09/24 03:39:54;;;;;;;20.10;5.57;;;;;;;;;;5005555;28;20485;-57
2023/09/24 03:42:19;;;;;;;16.30;4.82;;;;;;;;;;5005733;28;20646;-57
2023/09/24 03:44:44;;;;;;;16.23;4.67;;;;;;;;;;5005476;28;20049;-57
2023/09/24 03:47:10;;;;;;;17.87;4.47;;;;;;;;;;5005273;28;20274;-60
2023/09/24 03:49:35;;;;;;;13.18;4.65;;;;;;;;;;5005496;28;20634;-58
2023/09/24 03:52:00;;;;;;;15.20;4.73;;;;;;;;;;5005857;28;20386;-58
2023/09/24 03:54:26;;;;;;;16.00;4.50;;;;;;;;;;5005642;28;20284;-58
2023/09/24 03:56:51;;;;;;;17.75;4.68;;;;;;;;;;5005248;28;20018;-57
2023/09/24 03:59:16;;;;;;;16.38;4.65;;;;;;;;;;5005110;28;20048;-58
2023/09/24 04:01:41;;;;;;;21.75;4.95;;;;;;;;;;4987041;28;20418;-58
2023/09/24 04:04:08;;;;;;;17.17;5.05;;;;;;;;;;4998170;28;20483;-58
2023/09/24 04:06:34;;;;;;;16.77;4.90;;;;;;;;;;4995045;28;20049;-58
2023/09/24 04:08:59;;;;;;;18.50;4.53;;;;;;;;;;4981142;28;20065;-58
2023/09/24 04:11:24;;;;;;;16.33;4.63;;;;;;;;;;4997216;28;20053;-57
2023/09/24 04:13:49;;;;;;;15.00;4.27;;;;;;;;;;4998396;28;20867;-58
2023/09/24 04:16:15;;;;;;;14.80;4.35;;;;;;;;;;5003718;28;20334;-57
2023/09/24 04:18:41;;;;;;;16.03;4.80;;;;;;;;;;5004815;28;20050;-58
2023/09/24 04:21:13;;;;;;;19.23;4.80;;;;;;;;;;5004292;28;20321;-58
2023/09/24 04:23:38;;;;;;;16.63;5.07;;;;;;;;;;5004875;28;20037;-57
2023/09/24 04:26:03;;;;;;;18.47;4.60;;;;;;;;;;5004653;28;20030;-58
2023/09/24 04:28:29;;;;;;;18.70;4.53;;;;;;;;;;5004673;28;20280;-57
2023/09/24 04:30:56;;;;;;;14.03;4.77;;;;;;;;;;5003464;28;20045;-57
2023/09/24 04:33:21;;;;;;;17.63;5.43;;;;;;;;;;5004693;28;20403;-58
2023/09/24 04:35:47;;;;;;;14.90;4.70;;;;;;;;;;5005239;28;20109;-58
2023/09/24 04:38:13;;;;;;;18.60;4.68;;;;;;;;;;4986969;28;20338;-57
2023/09/24 04:40:39;;;;;;;15.65;4.78;;;;;;;;;;5005243;28;20038;-57
2023/09/24 04:43:05;;;;;;;17.92;5.43;;;;;;;;;;5004700;28;20438;-57
2023/09/24 04:45:31;;;;;;;17.05;4.85;;;;;;;;;;5005874;28;20061;-57
2023/09/24 04:47:56;;;;;;;18.88;4.95;;;;;;;;;;5003258;28;20058;-57
2023/09/24 04:50:23;;;;;;;18.37;4.73;;;;;;;;;;5004581;28;20092;-57
2023/09/24 04:52:50;;;;;;;15.30;4.65;;;;;;;;;;5004194;28;20781;-58
2023/09/24 04:55:15;;;;;;;17.33;4.72;;;;;;;;;;5004843;28;20461;-58
2023/09/24 04:57:42;;;;;;;15.77;4.80;;;;;;;;;;4986744;28;20113;-58
2023/09/24 05:00:10;;;;;;;18.95;5.38;;;;;;;;;;5004639;28;20038;-58
2023/09/24 05:02:36;;;;;;;15.60;4.85;;;;;;;;;;5004686;28;20026;-57
2023/09/24 05:05:01;;;;;;;16.77;5.53;;;;;;;;;;5004640;28;20099;-57
2023/09/24 05:07:26;;;;;;;12.65;4.85;;;;;;;;;;5004585;28;20269;-56
2023/09/24 05:09:52;;;;;;;17.75;4.78;;;;;;;;;;5002776;28;20623;-58
2023/09/24 05:12:17;;;;;;;18.27;4.80;;;;;;;;;;5004663;28;20030;-58
2023/09/24 05:14:43;;;;;;;14.95;4.72;;;;;;;;;;5004977;28;20064;-58
2023/09/24 05:17:08;;;;;;;16.17;4.75;;;;;;;;;;5003463;28;20128;-58
2023/09/24 05:19:33;;;;;;;13.00;5.10;;;;;;;;;;5004734;28;20042;-58
2023/09/24 05:21:59;;;;;;;15.00;4.90;;;;;;;;;;5004505;28;20296;-58
2023/09/24 05:24:24;;;;;;;16.80;5.03;;;;;;;;;;5004354;28;20876;-58
2023/09/24 05:26:49;;;;;;;17.30;5.30;;;;;;;;;;5005135;28;20351;-57
2023/09/24 05:29:14;;;;;;;21.30;5.10;;;;;;;;;;5004415;28;20426;-59
2023/09/24 05:31:40;;;;;;;14.75;4.80;;;;;;;;;;5004545;28;20753;-58
2023/09/24 05:34:06;;;;;;;17.57;4.70;;;;;;;;;;5004633;28;20041;-59
2023/09/24 05:36:31;;;;;;;20.33;5.32;;;;;;;;;;5003586;28;20686;-58
2023/09/24 05:38:57;;;;;;;14.73;5.10;;;;;;;;;;5004179;28;20114;-58
2023/09/24 05:41:22;;;;;;;19.38;4.93;;;;;;;;;;5004947;28;20484;-58
2023/09/24 05:43:48;;;;;;;18.20;4.65;;;;;;;;;;5007885;28;20174;-58
2023/09/24 05:46:14;;;;;;;15.85;5.68;;;;;;;;;;5007823;28;20506;-59
2023/09/24 05:48:39;;;;;;;18.55;4.80;;;;;;;;;;5007613;28;20183;-59
2023/09/24 05:51:04;;;;;;;15.05;5.15;;;;;;;;;;5007989;28;20049;-58
2023/09/24 05:53:30;;;;;;;20.45;5.30;;;;;;;;;;5007297;28;20049;-58
2023/09/24 05:55:55;;;;;;;18.88;5.32;;;;;;;;;;5007878;28;20056;-59
2023/09/24 05:58:20;;;;;;;11.63;5.00;;;;;;;;;;5007513;28;20462;-59
2023/09/24 06:00:46;;;;;;;16.90;5.10;;;;;;;;;;4984771;28;20026;-58
2023/09/24 06:03:13;;;;;;;16.20;5.15;;;;;;;;;;5000907;28;20063;-58
2023/09/24 06:05:38;;;;;;;13.07;4.57;;;;;;;;;;5007825;28;20041;-59
2023/09/24 06:08:05;;;;;;;12.18;4.60;;;;;;;;;;5007788;28;20042;-59
2023/09/24 06:10:30;;;;;;;17.20;4.88;;;;;;;;;;5005941;28;20046;-58
2023/09/24 06:12:55;;;;;;;11.75;4.60;;;;;;;;;;5006195;28;20477;-57
2023/09/24 06:15:20;;;;;;;13.77;4.80;;;;;;;;;;4988999;28;20514;-57
2023/09/24 06:17:47;;;;;;;19.13;4.72;;;;;;;;;;5007186;28;20276;-59
2023/09/24 06:20:12;;;;;;;12.30;4.78;;;;;;;;;;5006784;28;20105;-58
2023/09/24 06:22:38;;;;;;;13.15;4.57;;;;;;;;;;5006926;28;20125;-58
2023/09/24 06:25:03;;;;;;;18.77;4.93;;;;;;;;;;5006955;28;20030;-59
2023/09/24 06:27:29;;;;;;;17.45;5.10;;;;;;;;;;5006966;28;20425;-58
2023/09/24 06:29:54;;;;;;;15.68;4.20;;;;;;;;;;5007356;28;20042;-58
2023/09/24 06:32:19;;;;;;;15.60;4.40;;;;;;;;;;5006700;28;20045;-58
2023/09/24 06:34:44;;;;;;;16.17;4.30;;;;;;;;;;5006818;28;20368;-58
2023/09/24 06:37:10;;;;;;;12.82;4.40;;;;;;;;;;4997579;28;20317;-58
2023/09/24 06:39:35;;;;;;;17.00;4.40;;;;;;;;;;4997297;28;20146;-58
2023/09/24 06:42:01;;;;;;;14.35;4.72;;;;;;;;;;5000313;28;20268;-57
2023/09/24 06:44:26;;;;;;;13.45;4.40;;;;;;;;;;4997482;28;20053;-60
2023/09/24 06:46:51;;;;;;;13.30;4.00;;;;;;;;;;4996617;28;20172;-57
2023/09/24 06:49:17;;;;;;;16.05;4.47;;;;;;;;;;4996520;28;20426;-57
2023/09/24 06:51:42;;;;;;;16.20;4.77;;;;;;;;;;4996290;28;20034;-58
2023/09/24 06:54:07;;;;;;;12.90;4.45;;;;;;;;;;4994611;28;20312;-63
2023/09/24 06:56:33;;;;;;;13.87;4.90;;;;;;;;;;4994698;28;20030;-58
2023/09/24 06:58:58;;;;;;;14.70;4.72;;;;;;;;;;4996527;28;20344;-58
2023/09/24 07:01:23;;;;;;;16.15;4.50;;;;;;;;;;5000124;28;20046;-58
2023/09/24 07:03:49;;;;;;;13.27;5.53;;;;;;;;;;4997215;28;20247;-56
2023/09/24 07:06:15;;;;;;;14.13;5.03;;;;;;;;;;4998783;28;20281;-60
2023/09/24 07:08:40;;;;;;;14.70;4.97;;;;;;;;;;4996780;28;20045;-59
2023/09/24 07:11:24;;;;;;;15.85;4.80;;;;;;;;;;4996583;28;20030;-57
2023/09/24 07:13:50;;;;;;;12.50;4.35;;;;;;;;;;4995632;28;20053;-57
2023/09/24 07:16:15;;;;;;;14.15;4.35;;;;;;;;;;4994163;28;20053;-57
2023/09/24 07:18:41;;;;;;;16.75;4.82;;;;;;;;;;4997648;28;20030;-58
2023/09/24 07:21:06;;;;;;;14.35;4.35;;;;;;;;;;4992401;28;20034;-57
2023/09/24 07:23:31;;;;;;;12.77;4.43;;;;;;;;;;4994884;28;20113;-57
2023/09/24 07:25:57;;;;;;;10.95;4.40;;;;;;;;;;4994696;28;20293;-58
2023/09/24 07:28:24;;;;;;;17.23;5.10;;;;;;;;;;4995179;28;20050;-58
2023/09/24 07:30:50;;;;;;;12.35;4.53;;;;;;;;;;4980005;28;20100;-58
2023/09/24 07:33:15;;;;;;;13.00;4.47;;;;;;;;;;4995972;28;20034;-58
2023/09/24 07:35:40;;;;;;;16.60;5.53;;;;;;;;;;4990307;28;20121;-58
2023/09/24 07:38:05;;;;;;;18.03;5.03;;;;;;;;;;4995348;28;20281;-58
2023/09/24 07:40:31;;;;;;;16.27;5.10;;;;;;;;;;4992107;28;20677;-58
2023/09/24 07:42:56;;;;;;;16.38;4.90;;;;;;;;;;4982539;28;20289;-57
2023/09/24 07:45:22;;;;;;;20.45;5.95;;;;;;;;;;4993102;28;20208;-58
2023/09/24 07:47:47;;;;;;;16.35;5.47;;;;;;;;;;4996201;28;20553;-57
2023/09/24 07:50:12;;;;;;;15.10;4.83;;;;;;;;;;4996004;28;20556;-57
2023/09/24 07:52:38;;;;;;;16.45;5.00;;;;;;;;;;4994756;28;20293;-57
2023/09/24 07:55:06;;;;;;;17.17;4.88;;;;;;;;;;4993503;28;20479;-57
2023/09/24 07:57:31;;;;;;;16.30;4.80;;;;;;;;;;4980187;28;20054;-57
2023/09/24 07:59:57;;;;;;;13.97;4.90;;;;;;;;;;4993971;28;20558;-56
2023/09/24 08:02:22;;;;;;;13.30;4.75;;;;;;;;;;4994289;28;20303;-57
2023/09/24 08:04:47;;;;;;;12.63;4.75;;;;;;;;;;4993944;28;20094;-58
2023/09/24 08:07:13;;;;;;;16.23;4.75;;;;;;;;;;4992896;28;20038;-58
2023/09/24 08:09:40;;;;;;;13.10;4.97;;;;;;;;;;4994672;28;20096;-57
2023/09/24 08:12:05;;;;;;;16.08;4.90;;;;;;;;;;4994790;28;20050;-57
2023/09/24 08:14:31;;;;;;;14.73;4.78;;;;;;;;;;4994664;28;20676;-58
2023/09/24 08:16:56;;;;;;;10.50;4.47;;;;;;;;;;4994280;28;20053;-58
2023/09/24 08:19:21;;;;;;;19.30;4.90;;;;;;;;;;4996817;28;20324;-57
2023/09/24 08:21:47;;;;;;;15.88;5.60;;;;;;;;;;4984099;28;20145;-58
2023/09/24 08:24:12;;;;;;;14.73;4.77;;;;;;;;;;4976031;28;20038;-58
2023/09/24 08:26:37;;;;;;;17.17;4.60;;;;;;;;;;4992502;28;20320;-57
2023/09/24 08:29:06;;;;;;;14.50;5.07;;;;;;;;;;4996695;28;20131;-58
2023/09/24 08:31:32;;;;;;;15.02;5.90;;;;;;;;;;4994650;28;20880;-57
2023/09/24 08:33:57;;;;;;;13.18;4.95;;;;;;;;;;4981585;28;20053;-57
2023/09/24 08:36:22;;;;;;;17.65;5.00;;;;;;;;;;4992145;28;20543;-58
2023/09/24 08:38:48;;;;;;;17.20;5.00;;;;;;;;;;4981763;28;20399;-57
2023/09/24 08:41:13;;;;;;;15.85;5.20;;;;;;;;;;4993482;28;20336;-57
2023/09/24 08:43:39;;;;;;;15.95;4.97;;;;;;;;;;4994687;28;20038;-58
2023/09/24 08:46:05;;;;;;;14.50;4.88;;;;;;;;;;4994181;28;20863;-57
2023/09/24 08:48:30;;;;;;;18.98;5.28;;;;;;;;;;4992292;28;20139;-57
2023/09/24 08:50:55;;;;;;;16.47;5.17;;;;;;;;;;4993511;28;20050;-57
2023/09/24 08:53:21;;;;;;;15.03;4.60;;;;;;;;;;4993204;28;20308;-57
2023/09/24 08:55:46;;;;;;;19.90;5.25;;;;;;;;;;4994867;28;20643;-57
2023/09/24 08:58:12;;;;;;;14.70;4.80;;;;;;;;;;4991746;28;20319;-57
2023/09/24 09:00:38;;;;;;;15.18;5.22;;;;;;;;;;4993677;28;20580;-58
2023/09/24 09:03:04;;;;;;;15.10;5.03;;;;;;;;;;4992498;28;20625;-58
2023/09/24 09:05:29;;;;;;;16.80;5.30;;;;;;;;;;4991198;28;20042;-60
2023/09/24 09:08:03;;;;;;;16.88;5.32;;;;;;;;;;4991885;28;20092;-57
2023/09/24 09:10:29;;;;;;;13.43;4.50;;;;;;;;;;4996294;28;20482;-59
2023/09/24 09:13:08;;;;;;;16.02;5.22;;;;;;;;;;4981356;28;20056;-58
2023/09/24 09:15:34;;;;;;;11.32;4.80;;;;;;;;;;4991872;28;20136;-58
2023/09/24 09:18:00;;;;;;;15.63;4.82;;;;;;;;;;4998230;28;20192;-56
2023/09/24 09:20:44;;;;;;;17.98;5.00;;;;;;;;;;4996094;28;20042;-57
2023/09/24 09:23:12;;;;;;;14.02;5.00;;;;;;;;;;4996156;28;20053;-56
2023/09/24 09:25:45;;;;;;;15.70;4.88;;;;;;;;;;4996069;28;20367;-57
2023/09/24 09:28:20;;;;;;;12.85;4.57;;;;;;;;;;4995889;28;20501;-57
2023/09/24 09:31:06;;;;;;;13.75;4.72;;;;;;;;;;4995219;28;20069;-58
2023/09/24 09:33:32;;;;;;;20.20;5.03;;;;;;;;;;4995430;28;20056;-58
2023/09/24 09:35:58;;;;;;;14.40;4.60;;;;;;;;;;4995855;28;20076;-57
2023/09/24 09:38:23;;;;;;;16.60;4.78;;;;;;;;;;4997032;28;20495;-57
2023/09/24 09:40:51;;;;;;;18.95;5.03;;;;;;;;;;4996705;28;20112;-58
2023/09/24 09:43:17;;;;;;;20.45;5.03;;;;;;;;;;4996463;28;20034;-58
2023/09/24 09:45:43;;;;;;;13.80;4.30;;;;;;;;;;4978463;28;20423;-57
2023/09/24 09:48:09;;;;;;;15.50;4.88;;;;;;;;;;4993682;28;20174;-57
2023/09/24 09:50:36;;;;;;;14.77;4.32;;;;;;;;;;4989341;28;20050;-57
2023/09/24 09:53:05;;;;;;;17.33;4.60;;;;;;;;;;4988802;28;20088;-57
2023/09/24 09:55:30;;;;;;;17.50;4.43;;;;;;;;;;4989992;28;20054;-57
2023/09/24 09:57:55;;;;;;;14.63;4.50;;;;;;;;;;4997040;28;20400;-61
2023/09/24 10:00:20;;;;;;;12.48;5.13;;;;;;;;;;4976741;28;20331;-57
2023/09/24 10:02:47;;;;;;;18.50;4.97;;;;;;;;;;4993272;28;20046;-58
2023/09/24 10:05:12;;;;;;;21.15;5.30;;;;;;;;;;4995082;28;20293;-58
2023/09/24 10:07:38;;;;;;;9.20;4.80;;;;;;;;;;4993868;28;20045;-58
2023/09/24 10:10:22;;;;;;;20.20;4.50;;;;;;;;;;4996509;28;20291;-59
2023/09/24 10:12:47;;;;;;;16.15;4.72;;;;;;;;;;4996262;28;20120;-57
2023/09/24 10:15:26;;;;;;;17.13;4.90;;;;;;;;;;4994558;28;20080;-57
2023/09/24 10:18:09;;;;;;;12.48;4.63;;;;;;;;;;4996061;28;20297;-57
2023/09/24 10:21:04;;;;;;;15.57;4.82;;;;;;;;;;4994854;28;20100;-57
2023/09/24 10:23:29;;;;;;;19.48;5.20;;;;;;;;;;4985232;28;20049;-58
2023/09/24 10:25:56;;;;;;;13.87;4.67;;;;;;;;;;4997717;28;20569;-58
2023/09/24 10:28:21;;;;;;;21.42;5.60;;;;;;;;;;4994952;28;20869;-58
2023/09/24 10:31:04;;;;;;;18.47;5.33;;;;;;;;;;4995124;28;20022;-58
2023/09/24 10:33:48;;;;;;;15.73;5.05;;;;;;;;;;4995904;28;20303;-58
2023/09/24 10:36:34;;;;;;;14.77;4.78;;;;;;;;;;4993525;28;20425;-70
2023/09/24 10:39:03;;;;;;;16.42;5.07;;;;;;;;;;4993987;28;20097;-68
2023/09/24 10:41:29;;;;;;;12.85;4.47;;;;;;;;;;4997154;28;20046;-58
2023/09/24 10:44:13;;;;;;;17.00;4.60;;;;;;;;;;4994884;28;20038;-57
2023/09/24 10:46:38;;;;;;;17.05;5.57;;;;;;;;;;4993825;28;20034;-58
2023/09/24 10:49:03;;;;;;;13.88;4.80;;;;;;;;;;4995440;28;20030;-57
2023/09/24 10:51:29;;;;;;;16.27;5.47;;;;;;;;;;4992870;28;20486;-58
2023/09/24 10:54:10;;;;;;;12.77;4.50;;;;;;;;;;4998069;28;20373;-57
2023/09/24 10:56:35;;;;;;;17.80;5.00;;;;;;;;;;4993674;28;20042;-58
2023/09/24 10:59:01;;;;;;;14.95;4.38;;;;;;;;;;4974362;28;20034;-57
2023/09/24 11:01:30;;;;;;;13.33;4.10;;;;;;;;;;4996160;28;20616;-58
2023/09/24 11:03:55;;;;;;;13.40;4.57;;;;;;;;;;4992864;28;20320;-59
2023/09/24 11:06:28;;;;;;;13.75;4.25;;;;;;;;;;4982400;28;20046;-58
2023/09/24 11:08:53;;;;;;;12.77;4.57;;;;;;;;;;4994724;28;20045;-58
2023/09/24 11:11:19;;;;;;;14.95;4.95;;;;;;;;;;4998104;28;20144;-58
2023/09/24 11:13:44;;;;;;;14.63;4.25;;;;;;;;;;4994837;28;20568;-58
2023/09/24 11:16:09;;;;;;;12.30;4.57;;;;;;;;;;4992997;28;20052;-58
2023/09/24 11:18:35;;;;;;;12.68;4.35;;;;;;;;;;4993798;28;20046;-58
2023/09/24 11:21:00;;;;;;;11.60;4.63;;;;;;;;;;4991515;28;20038;-59
2023/09/24 11:23:25;;;;;;;17.10;4.60;;;;;;;;;;4993870;28;20303;-58
2023/09/24 11:25:51;;;;;;;13.52;4.32;;;;;;;;;;4975557;28;20490;-58
2023/09/24 11:28:16;;;;;;;15.25;4.18;;;;;;;;;;4993167;28;20030;-58
2023/09/24 11:30:42;;;;;;;10.40;4.13;;;;;;;;;;4992998;28;20040;-58
2023/09/24 11:33:20;;;;;;;16.73;4.25;;;;;;;;;;4992485;28;20034;-58
2023/09/24 11:35:46;;;;;;;13.35;4.32;;;;;;;;;;4993328;28;21173;-57
2023/09/24 11:38:11;;;;;;;14.05;4.55;;;;;;;;;;4991881;28;20267;-59
2023/09/24 11:40:37;;;;;;;13.68;4.45;;;;;;;;;;4994235;28;20025;-57
2023/09/24 11:43:03;;;;;;;14.93;4.55;;;;;;;;;;4993586;28;20068;-58
2023/09/24 11:45:48;;;;;;;14.30;4.10;;;;;;;;;;4994224;28;20755;-57
2023/09/24 11:48:14;;;;;;;9.85;4.10;;;;;;;;;;4994998;28;20348;-57
2023/09/24 11:50:40;;;;;;;15.75;4.40;;;;;;;;;;4992945;28;20038;-57
2023/09/24 11:53:05;;;;;;;12.25;4.60;;;;;;;;;;4992821;28;20113;-58
2023/09/24 11:55:31;;;;;;;11.32;4.38;;;;;;;;;;4993237;28;20129;-57
2023/09/24 11:57:56;;;;;;;12.43;4.15;;;;;;;;;;4992805;28;20061;-57
2023/09/24 12:00:21;;;;;;;14.27;4.03;;;;;;;;;;4992245;28;20379;-57
2023/09/24 12:02:46;;;;;;;14.60;4.70;;;;;;;;;;4993208;28;20387;-57
2023/09/24 12:05:12;;;;;;;14.13;4.63;;;;;;;;;;4992812;28;20041;-58
2023/09/24 12:07:37;;;;;;;15.02;4.53;;;;;;;;;;4993772;28;20280;-58
2023/09/24 12:10:02;;;;;;;12.55;4.60;;;;;;;;;;4992675;28;20707;-57
2023/09/24 12:12:28;;;;;;;13.02;4.85;;;;;;;;;;4991977;28;20041;-57
2023/09/24 12:14:53;;;;;;;12.83;4.70;;;;;;;;;;4993781;28;20057;-57
2023/09/24 12:17:19;;;;;;;14.97;4.80;;;;;;;;;;4991954;28;20301;-57
2023/09/24 12:19:45;;;;;;;13.50;4.30;;;;;;;;;;4992606;28;20281;-57
2023/09/24 12:22:10;;;;;;;10.50;4.15;;;;;;;;;;4991567;28;20053;-58
2023/09/24 12:24:35;;;;;;;14.75;4.35;;;;;;;;;;4991942;28;20034;-57
2023/09/24 12:27:01;;;;;;;14.83;4.00;;;;;;;;;;4992788;28;20064;-59
2023/09/24 12:29:26;;;;;;;13.47;4.30;;;;;;;;;;4992625;28;21006;-57
2023/09/24 12:31:51;;;;;;;11.73;4.27;;;;;;;;;;4992526;28;20792;-56
2023/09/24 12:34:16;;;;;;;13.53;4.23;;;;;;;;;;4992168;28;20320;-56
2023/09/24 12:36:42;;;;;;;15.07;4.85;;;;;;;;;;4991733;28;20281;-57
2023/09/24 12:39:07;;;;;;;18.92;5.20;;;;;;;;;;4991952;28;20046;-56
2023/09/24 12:41:32;;;;;;;13.00;4.47;;;;;;;;;;4992174;28;20135;-58
2023/09/24 12:43:58;;;;;;;16.60;4.28;;;;;;;;;;4990659;28;20034;-61
2023/09/24 12:46:23;;;;;;;12.40;4.07;;;;;;;;;;4991618;28;20069;-56
2023/09/24 12:48:48;;;;;;;17.50;4.80;;;;;;;;;;4992282;28;20049;-57
2023/09/24 12:51:14;;;;;;;15.00;4.40;;;;;;;;;;4993458;28;20061;-56
2023/09/24 12:53:42;;;;;;;14.90;4.40;;;;;;;;;;4996990;28;20319;-57
2023/09/24 12:56:07;;;;;;;13.70;4.55;;;;;;;;;;4995609;28;20289;-57
2023/09/24 12:58:33;;;;;;;13.70;4.35;;;;;;;;;;4994984;28;20035;-57
2023/09/24 13:00:58;;;;;;;15.20;4.78;;;;;;;;;;4995503;28;20046;-56
2023/09/24 13:03:23;;;;;;;16.60;4.40;;;;;;;;;;4996100;28;20088;-57
2023/09/24 13:05:48;;;;;;;12.43;4.20;;;;;;;;;;4995012;28;20296;-58
2023/09/24 13:08:14;;;;;;;16.80;4.78;;;;;;;;;;4995010;28;20034;-58
2023/09/24 13:10:39;;;;;;;16.47;4.80;;;;;;;;;;4996187;28;20041;-57
2023/09/24 13:13:05;;;;;;;12.23;4.55;;;;;;;;;;4995162;28;20296;-58
2023/09/24 13:15:31;;;;;;;16.63;5.38;;;;;;;;;;4995256;28;20049;-57
2023/09/24 13:17:57;;;;;;;12.77;4.32;;;;;;;;;;4995633;28;20453;-58
2023/09/24 13:20:22;;;;;;;15.35;4.50;;;;;;;;;;4995016;28;20053;-58
2023/09/24 13:22:47;;;;;;;16.88;4.88;;;;;;;;;;4978992;28;20108;-58
2023/09/24 13:25:13;;;;;;;13.77;4.70;;;;;;;;;;4994505;28;20088;-57
2023/09/24 13:27:38;;;;;;;12.60;4.47;;;;;;;;;;4995129;28;20076;-57
2023/09/24 13:30:04;;;;;;;15.05;4.55;;;;;;;;;;4994437;28;20762;-57
2023/09/24 13:32:31;;;;;;;15.90;4.45;;;;;;;;;;4995346;28;20033;-56
2023/09/24 13:34:56;;;;;;;15.15;4.35;;;;;;;;;;4993967;28;20573;-57
2023/09/24 13:37:22;;;;;;;14.60;4.47;;;;;;;;;;4995092;28;20196;-57
2023/09/24 13:39:48;;;;;;;9.70;4.43;;;;;;;;;;4978802;28;20129;-56
2023/09/24 13:42:13;;;;;;;13.43;4.97;;;;;;;;;;4995247;28;20041;-57
2023/09/24 13:44:38;;;;;;;14.27;4.50;;;;;;;;;;4994976;28;20506;-57
2023/09/24 13:47:04;;;;;;;16.37;5.03;;;;;;;;;;4993797;28;20167;-59
2023/09/24 13:49:29;;;;;;;17.63;5.40;;;;;;;;;;4994755;28;20343;-58
2023/09/24 13:51:54;;;;;;;15.25;5.00;;;;;;;;;;4995581;28;20038;-57
2023/09/24 13:54:20;;;;;;;14.90;5.05;;;;;;;;;;4994922;28;20054;-58
2023/09/24 13:56:45;;;;;;;21.03;5.57;;;;;;;;;;4994784;28;20413;-57
2023/09/24 13:59:11;;;;;;;20.55;5.97;;;;;;;;;;4994452;28;20648;-58
2023/09/24 14:01:37;;;;;;;21.52;6.60;;;;;;;;;;4995810;28;20041;-58
2023/09/24 14:04:02;;;;;;;16.77;5.95;;;;;;;;;;4982970;28;20053;-56
2023/09/24 14:06:27;;;;;;;18.55;6.40;;;;;;;;;;4995061;28;20077;-57
2023/09/24 14:14:20;;;;;;;22.40;6.93;;;;;;;;;;4993842;28;20449;-58
2023/09/24 14:16:47;;;;;;;17.35;6.32;;;;;;;;;;4994477;28;20124;-58
2023/09/24 14:19:12;;;;;;;18.92;5.72;;;;;;;;;;4993736;28;20034;-58
2023/09/24 14:21:38;;;;;;;16.33;5.93;;;;;;;;;;4994752;28;20045;-57
2023/09/24 14:24:03;;;;;;;15.02;5.80;;;;;;;;;;4994619;28;20468;-57
2023/09/24 14:26:29;;;;;;;17.25;6.25;;;;;;;;;;4994176;28;20034;-57
2023/09/24 14:28:55;;;;;;;15.48;5.97;;;;;;;;;;4994293;28;20035;-58
2023/09/24 14:31:20;;;;;;;19.77;6.78;;;;;;;;;;4993328;28;20030;-58
2023/09/24 14:33:46;;;;;;;18.30;6.50;;;;;;;;;;4992431;28;20048;-58
2023/09/24 14:36:12;;;;;;;20.55;6.35;;;;;;;;;;4992274;28;20553;-58